Time;durP1;ratioP1;P1;durP2;ratioP2;P2;SDS_P1;SDS_P2;PMS_P1;PMS_P2;Temp;Humidity;BMP_temperature;BMP_pressure;BME280_temperature;BME280_humidity;BME280_pressure;Samples;Min_cycle;Max_cycle;Signal;HPM_P1;HPM_P2
2023/05/10 00:06:16;;;;;;;9.10;6.30;;;;;;;12.16;56.33;100698.69;4968946;29;20482;-79
2023/05/10 00:09:30;;;;;;;9.77;6.70;;;;;;;12.25;55.95;100697.41;4997003;28;20455;-80
2023/05/10 00:12:03;;;;;;;6.90;6.07;;;;;;;12.27;55.83;100699.91;4925813;28;20471;-81
2023/05/10 00:14:47;;;;;;;9.60;6.97;;;;;;;12.24;56.05;100698.47;4965325;29;20406;-80
2023/05/10 00:23:37;;;;;;;9.27;6.83;;;;;;;12.21;56.07;100685.31;4963970;28;20426;-79
2023/05/10 00:29:36;;;;;;;7.30;6.60;;;;;;;12.02;56.73;100675.41;4976187;28;20543;-79
2023/05/10 00:32:23;;;;;;;7.17;6.47;;;;;;;12.01;56.72;100673.75;4963968;29;20580;-79
2023/05/10 00:38:49;;;;;;;8.33;6.40;;;;;;;11.90;57.23;100666.31;4969397;29;20412;-79
2023/05/10 00:41:49;;;;;;;8.07;7.27;;;;;;;11.89;57.18;100670.91;5003660;28;20526;-77
2023/05/10 00:44:30;;;;;;;7.50;6.80;;;;;;;11.83;57.30;100660.06;4985086;28;20462;-79
2023/05/10 00:47:41;;;;;;;11.40;6.20;;;;;;;11.74;57.71;100654.91;4964810;28;20451;-79
2023/05/10 00:51:27;;;;;;;;;;;;;;;;;;;;;
2023/05/10 00:54:47;;;;;;;8.70;6.40;;;;;;;11.72;57.83;100654.28;4978101;28;20451;-78
2023/05/10 00:57:59;;;;;;;8.70;6.83;;;;;;;11.63;58.17;100652.84;4968594;29;20455;-78
2023/05/10 01:09:36;;;;;;;10.07;7.10;;;;;;;11.52;58.70;100645.38;4955510;28;20450;-79
2023/05/10 01:12:42;;;;;;;6.50;5.90;;;;;;;11.46;58.76;100646.25;4912392;29;20477;-79
2023/05/10 01:15:20;;;;;;;8.43;6.50;;;;;;;11.45;59.07;100633.72;4917827;29;20439;-78
2023/05/10 01:18:07;;;;;;;8.10;7.00;;;;;;;11.41;59.26;100635.22;4997120;28;20470;-79
2023/05/10 01:21:02;;;;;;;7.57;6.50;;;;;;;11.33;59.69;100638.13;4974111;28;20493;-79
2023/05/10 01:24:26;;;;;;;13.27;7.67;;;;;;;11.39;59.32;100633.75;4945490;29;20537;-79
2023/05/10 01:27:21;;;;;;;8.93;7.10;;;;;;;11.31;59.77;100630.25;4948298;29;20449;-78
2023/05/10 01:30:31;;;;;;;9.20;6.60;;;;;;;11.29;59.87;100628.78;4964971;28;20497;-78
2023/05/10 01:33:16;;;;;;;10.40;6.47;;;;;;;11.27;59.86;100625.47;4955415;28;20449;-78
2023/05/10 01:35:53;;;;;;;8.50;6.60;;;;;;;11.22;60.03;100633.41;4964478;29;20431;-78
2023/05/10 01:38:33;;;;;;;8.43;6.37;;;;;;;11.13;60.54;100631.97;4969234;29;20846;-79
2023/05/10 01:41:17;;;;;;;13.03;7.23;;;;;;;11.14;60.39;100622.78;4971082;29;20465;-79
2023/05/10 01:43:58;;;;;;;6.77;6.07;;;;;;;11.04;60.91;100619.69;4973056;29;20449;-78
2023/05/10 01:46:53;;;;;;;7.97;6.87;;;;;;;11.00;60.99;100623.84;4975248;28;20529;-79
2023/05/10 01:49:41;;;;;;;6.93;6.07;;;;;;;10.88;61.32;100620.97;4993014;28;20455;-78
2023/05/10 01:52:19;;;;;;;8.30;6.43;;;;;;;10.76;61.94;100626.19;4992839;28;20473;-78
2023/05/10 01:54:57;;;;;;;7.30;6.00;;;;;;;10.84;61.71;100617.84;4981453;28;20454;-79
2023/05/10 01:57:39;;;;;;;7.87;6.50;;;;;;;10.77;62.10;100617.03;4982085;28;20514;-78
2023/05/10 02:00:11;;;;;;;9.20;8.00;;;;;;;10.80;61.95;100618.47;4972345;29;20470;-78
2023/05/10 02:02:49;;;;;;;9.90;7.10;;;;;;;10.87;61.79;100616.59;4962193;29;20439;-80
2023/05/10 02:05:28;;;;;;;8.43;7.33;;;;;;;10.79;62.08;100612.25;4959498;28;20517;-79
2023/05/10 02:08:00;;;;;;;12.77;7.40;;;;;;;10.87;61.87;100613.91;4970090;28;20689;-78
2023/05/10 02:10:31;;;;;;;6.90;6.20;;;;;;;10.78;62.09;100610.56;4990655;28;20560;-78
2023/05/10 02:13:02;;;;;;;6.80;5.80;;;;;;;10.70;62.66;100615.34;4964847;28;20440;-79
2023/05/10 02:15:38;;;;;;;6.63;6.03;;;;;;;10.73;62.41;100613.09;4977260;28;20419;-79
2023/05/10 02:18:08;;;;;;;8.17;7.37;;;;;;;10.57;63.20;100609.97;4953899;29;20458;-77
2023/05/10 02:20:40;;;;;;;10.07;5.97;;;;;;;10.66;62.73;100611.41;4981013;28;20606;-80
2023/05/10 02:23:13;;;;;;;8.90;6.87;;;;;;;10.65;62.66;100602.47;4985862;28;20493;-80
2023/05/10 02:25:47;;;;;;;9.15;6.82;;;;;;;10.69;62.78;100602.88;4963986;28;20443;-79
2023/05/10 02:28:18;;;;;;;9.07;5.50;;;;;;;10.62;62.80;100594.78;4961580;28;20190;-80
2023/05/10 02:30:48;;;;;;;9.07;6.60;;;;;;;10.54;63.00;100600.41;4964109;28;20478;-79
2023/05/10 02:33:23;;;;;;;15.93;6.43;;;;;;;10.51;63.16;100595.38;4985104;28;20209;-80
2023/05/10 02:35:55;;;;;;;8.15;7.32;;;;;;;10.46;63.49;100603.28;4955762;28;20198;-79
2023/05/10 02:41:41;;;;;;;7.18;5.82;;;;;;;10.47;63.45;100604.97;4979344;28;20433;-78
2023/05/10 02:44:11;;;;;;;8.57;6.72;;;;;;;10.46;63.27;100601.44;4966317;28;20191;-78
2023/05/10 02:46:41;;;;;;;6.73;6.03;;;;;;;10.41;63.72;100601.22;4958910;28;20310;-80
2023/05/10 02:49:10;;;;;;;8.32;7.32;;;;;;;10.34;63.97;100599.56;4980720;28;20476;-77
2023/05/10 02:51:48;;;;;;;7.47;6.53;;;;;;;10.39;63.83;100599.78;4947656;29;20589;-80
2023/05/10 02:54:21;;;;;;;6.65;5.90;;;;;;;10.36;63.80;100600.22;4976373;28;21016;-79
2023/05/10 02:56:56;;;;;;;7.65;6.18;;;;;;;10.35;63.58;100601.25;4972209;28;20194;-78
2023/05/10 02:59:29;;;;;;;7.07;6.10;;;;;;;10.29;63.72;100599.34;4987128;28;20225;-80
2023/05/10 03:01:58;;;;;;;8.82;6.70;;;;;;;10.25;64.08;100604.34;4963314;28;20229;-78
2023/05/10 03:04:28;;;;;;;7.45;6.63;;;;;;;10.28;63.86;100612.03;4957887;29;20194;-80
2023/05/10 03:07:00;;;;;;;10.40;6.10;;;;;;;10.27;63.89;100602.25;4991928;28;20224;-77
2023/05/10 03:09:30;;;;;;;6.43;5.82;;;;;;;10.33;63.85;100598.72;4958794;28;20219;-79
2023/05/10 03:12:10;;;;;;;9.23;6.03;;;;;;;10.25;64.10;100600.81;4957371;28;20218;-79
2023/05/10 03:14:53;;;;;;;8.85;6.65;;;;;;;10.29;63.88;100596.66;4960204;28;20212;-79
2023/05/10 03:17:31;;;;;;;9.60;6.70;;;;;;;10.17;64.27;100592.88;4961143;28;20261;-80
2023/05/10 03:20:09;;;;;;;6.22;5.60;;;;;;;10.15;64.32;100595.78;4959309;29;20715;-80
2023/05/10 03:22:48;;;;;;;7.32;6.40;;;;;;;10.11;64.40;100599.09;4982239;28;20319;-78
2023/05/10 03:25:48;;;;;;;8.00;5.55;;;;;;;10.07;64.70;100595.16;4980372;28;20216;-78
2023/05/10 03:28:30;;;;;;;6.25;4.90;;;;;;;10.13;64.33;100597.84;4954408;28;20221;-78
2023/05/10 03:31:03;;;;;;;5.90;5.25;;;;;;;10.13;64.23;100595.16;4967546;28;20261;-78
2023/05/10 03:33:34;;;;;;;6.20;5.60;;;;;;;10.17;64.04;100596.41;4963574;28;20224;-78
2023/05/10 03:36:17;;;;;;;13.43;5.05;;;;;;;10.20;63.85;100592.50;4973478;29;20197;-78
2023/05/10 03:41:45;;;;;;;9.68;5.70;;;;;;;10.77;62.18;100592.66;4965962;28;20206;-78
2023/05/10 03:44:15;;;;;;;6.27;5.67;;;;;;;11.58;59.75;100590.31;4982969;28;20661;-79
2023/05/10 03:46:55;;;;;;;7.53;5.82;;;;;;;12.42;57.02;100587.28;4982692;28;20441;-79
2023/05/10 03:49:24;;;;;;;12.40;6.17;;;;;;;12.89;54.59;100584.97;4958464;29;20226;-80
2023/05/10 03:51:56;;;;;;;6.03;5.20;;;;;;;13.43;53.17;100584.16;4947267;28;20451;-79
2023/05/10 03:54:37;;;;;;;10.63;6.47;;;;;;;13.59;52.58;100580.00;4976893;28;20828;-79
2023/05/10 03:57:16;;;;;;;11.77;5.70;;;;;;;14.07;51.02;100588.09;4963498;29;20430;-79
2023/05/10 04:00:15;;;;;;;6.27;5.67;;;;;;;14.55;49.84;100577.94;4957447;28;20483;-80
2023/05/10 04:03:02;;;;;;;8.80;5.30;;;;;;;14.71;48.85;100579.97;4954097;28;20454;-79
2023/05/10 04:06:01;;;;;;;8.17;5.83;;;;;;;14.59;48.83;100581.00;4954445;29;20461;-80
2023/05/10 04:08:46;;;;;;;6.10;5.47;;;;;;;15.45;46.98;100574.72;4969029;29;20463;-78
2023/05/10 04:11:21;;;;;;;6.17;5.33;;;;;;;15.70;46.34;100583.47;5001796;28;20466;-79
2023/05/10 04:14:34;;;;;;;7.50;5.10;;;;;;;15.45;46.83;100580.19;4983693;28;20414;-78
2023/05/10 04:17:37;;;;;;;6.00;4.97;;;;;;;15.95;45.20;100575.75;4962355;29;20439;-79
2023/05/10 04:20:20;;;;;;;7.77;6.47;;;;;;;15.90;45.14;100561.19;4963726;29;20454;-79
2023/05/10 04:23:03;;;;;;;8.37;6.27;;;;;;;16.08;44.94;100567.25;4966455;28;20438;-78
2023/05/10 04:25:34;;;;;;;7.27;5.77;;;;;;;15.51;46.00;100569.19;4968793;28;20457;-79
2023/05/10 04:29:04;;;;;;;7.80;5.83;;;;;;;15.67;45.57;100566.75;4951377;29;20525;-79
2023/05/10 04:32:22;;;;;;;7.03;6.00;;;;;;;16.59;43.75;100576.34;4972954;28;20447;-79
2023/05/10 04:34:56;;;;;;;8.00;5.20;;;;;;;17.35;42.43;100574.66;4952754;29;20520;-80
2023/05/10 04:37:25;;;;;;;8.80;5.40;;;;;;;16.45;43.26;100569.53;5009097;23;20502;-76
2023/05/10 04:39:54;;;;;;;6.37;5.33;;;;;;;17.44;41.73;100564.09;4956866;28;20443;-77
2023/05/10 04:42:23;;;;;;;7.70;6.30;;;;;;;16.81;42.70;100569.00;4960738;28;20512;-78
2023/05/10 04:44:53;;;;;;;6.10;5.30;;;;;;;17.16;42.43;100563.22;4957861;28;20500;-78
2023/05/10 04:47:22;;;;;;;8.53;5.80;;;;;;;17.91;41.05;100565.22;4955170;28;20478;-77
2023/05/10 04:49:51;;;;;;;7.00;6.13;;;;;;;16.98;42.17;100568.16;4964650;28;20890;-77
2023/05/10 04:52:20;;;;;;;9.43;5.20;;;;;;;17.34;41.91;100562.06;4962837;29;20514;-76
2023/05/10 04:54:50;;;;;;;8.37;5.03;;;;;;;18.62;39.53;100560.41;4960271;29;20966;-76
2023/05/10 04:57:19;;;;;;;6.10;5.10;;;;;;;17.72;40.78;100563.91;4958865;29;20515;-77
2023/05/10 04:59:49;;;;;;;8.60;5.53;;;;;;;17.70;41.04;100566.09;4958366;29;20441;-76
2023/05/10 05:02:20;;;;;;;8.33;5.20;;;;;;;17.39;41.12;100564.88;4943696;29;20416;-75
2023/05/10 05:04:49;;;;;;;8.17;5.40;;;;;;;17.72;41.33;100572.94;4951400;29;20406;-76
2023/05/10 05:07:18;;;;;;;7.13;5.47;;;;;;;18.33;40.05;100564.50;4970307;29;20819;-76
2023/05/10 05:09:47;;;;;;;6.00;5.40;;;;;;;19.04;39.22;100566.69;4962695;29;20429;-76
2023/05/10 05:12:16;;;;;;;6.27;5.67;;;;;;;19.03;38.61;100570.53;4970163;28;20446;-74
2023/05/10 05:14:46;;;;;;;7.57;4.80;;;;;;;18.85;38.91;100567.41;4975816;28;20411;-76
2023/05/10 05:17:15;;;;;;;5.80;4.90;;;;;;;18.46;39.56;100562.16;4967142;28;20440;-77
2023/05/10 05:19:45;;;;;;;8.73;4.80;;;;;;;19.76;37.61;100562.34;4963335;28;20452;-77
2023/05/10 05:22:14;;;;;;;6.00;5.40;;;;;;;17.18;41.64;100557.50;4953897;29;20404;-77
2023/05/10 05:24:46;;;;;;;9.07;5.40;;;;;;;15.57;45.04;100556.47;4948124;28;20899;-76
2023/05/10 05:27:15;;;;;;;7.80;6.23;;;;;;;14.69;48.06;100562.19;4969465;28;20485;-76
2023/05/10 05:29:44;;;;;;;7.17;5.23;;;;;;;14.10;49.85;100569.41;4949619;29;21013;-77
2023/05/10 05:32:13;;;;;;;5.43;4.83;;;;;;;13.65;51.07;100557.34;4957777;29;20801;-76
2023/05/10 05:34:44;;;;;;;6.97;5.10;;;;;;;13.63;51.36;100554.00;4972866;28;20475;-76
2023/05/10 05:37:15;;;;;;;5.97;4.13;;;;;;;13.56;51.81;100555.97;4951297;29;20991;-77
2023/05/10 05:39:45;;;;;;;6.37;5.00;;;;;;;13.43;52.40;100555.09;4957078;29;20432;-76
2023/05/10 05:42:16;;;;;;;6.33;4.50;;;;;;;13.49;51.99;100559.63;4956122;29;20436;-77
2023/05/10 05:44:45;;;;;;;5.60;4.30;;;;;;;13.47;52.51;100553.59;4957040;28;20465;-76
2023/05/10 05:47:14;;;;;;;5.40;4.63;;;;;;;13.66;52.16;100553.53;4951520;29;20499;-76
2023/05/10 05:49:46;;;;;;;5.63;4.90;;;;;;;13.71;51.86;100550.97;4959526;28;20472;-78
2023/05/10 05:52:15;;;;;;;8.20;5.43;;;;;;;13.70;51.96;100549.31;4956751;29;20432;-74
2023/05/10 05:54:44;;;;;;;6.03;3.90;;;;;;;13.91;51.73;100551.50;4949126;29;20622;-74
2023/05/10 05:57:13;;;;;;;5.00;4.57;;;;;;;13.96;51.80;100548.91;4970861;29;20423;-76
2023/05/10 05:59:43;;;;;;;6.60;4.33;;;;;;;14.11;50.97;100554.75;4976895;29;20418;-74
2023/05/10 06:02:13;;;;;;;4.70;4.00;;;;;;;14.26;51.48;100549.69;4975457;29;20484;-76
2023/05/10 06:04:41;;;;;;;4.73;4.23;;;;;;;14.40;50.63;100546.78;4975063;29;20424;-75
2023/05/10 06:07:13;;;;;;;6.80;3.93;;;;;;;14.45;50.76;100545.00;4977345;29;20446;-75
2023/05/10 06:09:42;;;;;;;9.47;4.40;;;;;;;14.52;50.34;100553.06;4955846;29;20430;-76
2023/05/10 06:12:12;;;;;;;6.87;4.17;;;;;;;14.57;50.26;100553.19;4953957;29;20438;-76
2023/05/10 06:14:41;;;;;;;8.20;5.90;;;;;;;14.57;50.61;100554.00;4949569;29;20454;-76
2023/05/10 06:17:10;;;;;;;6.50;4.53;;;;;;;14.88;50.72;100551.97;4954158;29;20523;-75
2023/05/10 06:19:39;;;;;;;4.80;4.10;;;;;;;15.20;49.29;100564.16;4955031;28;20414;-76
2023/05/10 06:22:08;;;;;;;4.23;3.50;;;;;;;15.28;49.12;100552.88;4955282;29;20435;-77
2023/05/10 06:24:39;;;;;;;3.70;3.40;;;;;;;15.30;48.92;100549.91;4954630;29;20433;-75
2023/05/10 06:27:08;;;;;;;3.40;3.10;;;;;;;15.23;48.53;100545.41;4957750;29;20495;-77
2023/05/10 06:29:39;;;;;;;5.13;4.20;;;;;;;15.33;48.87;100546.69;4958343;28;20474;-78
2023/05/10 06:32:08;;;;;;;4.80;3.70;;;;;;;15.32;48.69;100547.75;4957646;29;20439;-78
2023/05/10 06:34:41;;;;;;;5.00;3.83;;;;;;;15.60;48.84;100547.78;4963264;28;20441;-78
2023/05/10 06:37:10;;;;;;;5.90;3.40;;;;;;;15.54;47.97;100563.22;4952249;29;20465;-78
2023/05/10 06:39:40;;;;;;;7.00;3.50;;;;;;;15.73;48.26;100550.25;4958091;29;20444;-77
2023/05/10 06:42:09;;;;;;;5.30;3.77;;;;;;;15.76;47.76;100555.22;4961199;29;20403;-77
2023/05/10 06:44:39;;;;;;;6.00;4.00;;;;;;;15.81;47.61;100547.13;4976297;28;20439;-77
2023/05/10 06:47:08;;;;;;;4.47;3.83;;;;;;;15.78;47.83;100563.97;5008862;28;20454;-76
2023/05/10 06:49:38;;;;;;;8.80;3.80;;;;;;;16.03;47.17;100556.25;4977710;28;20460;-75
2023/05/10 06:52:07;;;;;;;4.83;3.20;;;;;;;15.91;47.00;100555.50;4975937;28;20459;-77
2023/05/10 06:54:37;;;;;;;6.13;3.60;;;;;;;15.82;48.00;100551.50;4962988;29;20536;-79
2023/05/10 06:57:12;;;;;;;8.33;3.50;;;;;;;15.83;47.76;100555.06;4965186;28;20467;-79
2023/05/10 06:59:58;;;;;;;6.57;4.57;;;;;;;16.18;47.76;100541.19;4968870;29;20448;-75
2023/05/10 07:02:28;;;;;;;4.50;3.43;;;;;;;16.52;47.22;100553.78;4971108;29;20516;-76
2023/05/10 07:04:58;;;;;;;4.60;3.90;;;;;;;16.59;46.49;100546.28;4959191;29;20413;-76
2023/05/10 07:07:31;;;;;;;5.27;3.73;;;;;;;16.67;46.70;100551.31;4967645;29;20891;-76
2023/05/10 07:10:00;;;;;;;2.93;2.43;;;;;;;16.65;46.22;100553.50;4972441;29;20428;-78
2023/05/10 07:12:30;;;;;;;12.57;4.00;;;;;;;16.82;46.53;100559.75;4958655;29;20416;-75
2023/05/10 07:15:00;;;;;;;3.60;3.30;;;;;;;16.82;46.38;100548.81;4952524;29;20492;-78
2023/05/10 07:17:28;;;;;;;4.40;4.00;;;;;;;16.97;46.05;100550.09;4957300;29;20432;-78
2023/05/10 07:19:58;;;;;;;3.87;3.23;;;;;;;16.88;45.57;100546.97;4965709;29;20378;-78
2023/05/10 07:22:27;;;;;;;4.77;3.70;;;;;;;16.79;46.14;100545.75;4971232;29;20438;-79
2023/05/10 07:24:56;;;;;;;3.43;3.13;;;;;;;16.68;46.21;100536.59;4970151;28;20409;-77
2023/05/10 07:27:25;;;;;;;4.10;3.40;;;;;;;16.92;46.19;100538.03;4979406;28;20498;-80
2023/05/10 07:29:56;;;;;;;4.23;3.60;;;;;;;17.06;45.74;100538.47;4951700;28;20475;-77
2023/05/10 07:32:25;;;;;;;6.40;3.67;;;;;;;17.15;45.29;100538.84;4952762;29;20492;-79
2023/05/10 07:34:54;;;;;;;5.13;4.70;;;;;;;17.25;45.10;100539.81;4953279;28;20416;-79
2023/05/10 07:37:23;;;;;;;4.73;3.50;;;;;;;17.38;45.08;100542.16;4982026;28;20522;-77
2023/05/10 07:39:52;;;;;;;7.00;4.40;;;;;;;17.71;44.92;100545.88;4956459;28;20401;-80
2023/05/10 07:42:21;;;;;;;4.27;3.40;;;;;;;17.47;44.40;100548.03;4957382;28;20430;-79
2023/05/10 07:44:54;;;;;;;5.17;3.93;;;;;;;17.36;45.39;100540.78;4958074;29;20417;-80
2023/05/10 07:47:23;;;;;;;3.87;3.47;;;;;;;17.59;44.82;100543.25;4958745;28;20444;-79
2023/05/10 07:49:52;;;;;;;6.17;3.63;;;;;;;17.63;44.42;100536.19;4959343;29;20978;-81
2023/05/10 07:52:21;;;;;;;6.80;3.43;;;;;;;17.37;45.20;100534.22;4958985;29;20442;-81
2023/05/10 07:54:50;;;;;;;5.00;3.40;;;;;;;17.53;44.84;100533.31;4959733;29;20448;-79
2023/05/10 07:57:20;;;;;;;5.37;3.70;;;;;;;17.68;44.89;100528.03;4953282;29;20446;-80
2023/05/10 07:59:49;;;;;;;6.80;4.10;;;;;;;17.74;44.47;100527.00;4959538;29;20473;-80
2023/05/10 08:02:20;;;;;;;10.63;3.60;;;;;;;18.09;43.85;100537.47;4963698;28;20445;-78
2023/05/10 08:04:50;;;;;;;4.20;3.40;;;;;;;18.25;44.12;100530.19;4980277;28;20452;-78
2023/05/10 08:07:18;;;;;;;4.57;4.17;;;;;;;18.62;43.55;100533.81;4989970;28;20497;-77
2023/05/10 08:09:47;;;;;;;4.23;3.60;;;;;;;18.72;42.74;100535.81;4976252;29;20818;-77
2023/05/10 08:12:16;;;;;;;4.23;3.67;;;;;;;18.79;42.88;100532.81;4973675;28;20450;-77
2023/05/10 08:14:45;;;;;;;4.13;3.63;;;;;;;18.70;42.70;100537.16;4962491;28;20436;-81
2023/05/10 08:17:14;;;;;;;4.23;3.47;;;;;;;18.67;42.86;100542.09;4962352;29;20501;-79
2023/05/10 08:19:46;;;;;;;5.13;3.50;;;;;;;18.88;42.26;100536.72;4952775;28;20431;-80
2023/05/10 08:22:16;;;;;;;3.60;3.30;;;;;;;18.76;42.87;100536.09;4961376;28;20408;-79
2023/05/10 08:24:45;;;;;;;7.77;4.03;;;;;;;18.58;42.67;100534.63;4963266;28;20482;-77
2023/05/10 08:27:14;;;;;;;4.60;4.03;;;;;;;18.51;42.80;100545.75;4954675;29;20577;-78
2023/05/10 08:29:43;;;;;;;5.00;4.13;;;;;;;18.53;42.87;100537.28;4958610;29;20541;-76
2023/05/10 08:32:18;;;;;;;3.70;3.40;;;;;;;18.80;42.97;100531.72;4952163;28;20461;-77
2023/05/10 08:34:48;;;;;;;8.90;4.23;;;;;;;18.92;42.48;100535.94;4947010;29;20436;-77
2023/05/10 08:37:17;;;;;;;10.63;3.20;;;;;;;19.09;42.12;100535.72;4951528;28;20480;-78
2023/05/10 08:39:47;;;;;;;4.00;3.40;;;;;;;19.15;41.67;100531.94;4948693;29;20523;-77
2023/05/10 08:42:20;;;;;;;4.63;3.53;;;;;;;19.18;41.65;100547.00;4960927;29;20442;-77
2023/05/10 08:44:50;;;;;;;3.63;3.33;;;;;;;19.20;41.65;100545.66;4965304;28;20450;-78
2023/05/10 08:47:20;;;;;;;4.40;4.00;;;;;;;19.06;41.91;100548.06;4958054;29;20959;-78
2023/05/10 08:49:51;;;;;;;7.07;3.87;;;;;;;19.10;41.33;100542.88;4959390;28;20486;-78
2023/05/10 08:52:22;;;;;;;5.70;3.57;;;;;;;19.16;41.10;100540.97;4951834;29;20527;-78
2023/05/10 08:54:50;;;;;;;14.40;4.27;;;;;;;19.06;41.49;100544.50;4952400;29;20421;-79
2023/05/10 08:57:20;;;;;;;3.93;3.50;;;;;;;19.42;41.25;100540.81;4957264;29;20487;-78
2023/05/10 08:59:49;;;;;;;6.87;3.20;;;;;;;19.63;41.00;100539.00;4957496;28;20444;-80
2023/05/10 09:02:21;;;;;;;4.53;4.17;;;;;;;19.65;40.56;100533.25;4954610;29;20813;-78
2023/05/10 09:04:51;;;;;;;5.50;4.57;;;;;;;19.85;40.76;100533.25;4951319;29;20463;-78
2023/05/10 09:07:21;;;;;;;8.00;4.20;;;;;;;19.89;40.62;100539.88;4954987;29;21022;-78
2023/05/10 09:09:51;;;;;;;5.40;3.83;;;;;;;19.97;40.28;100542.06;4961209;29;20975;-78
2023/05/10 09:12:20;;;;;;;4.10;3.23;;;;;;;19.91;39.92;100543.16;4957536;29;20435;-79
2023/05/10 09:14:52;;;;;;;4.20;3.70;;;;;;;19.70;40.16;100542.31;4954728;29;20424;-79
2023/05/10 09:17:21;;;;;;;7.63;3.93;;;;;;;19.73;40.38;100540.94;4952766;28;20506;-78
2023/05/10 09:19:58;;;;;;;4.27;3.60;;;;;;;19.67;40.52;100553.00;4953487;29;20407;-78
2023/05/10 09:22:27;;;;;;;6.80;3.27;;;;;;;19.50;40.10;100547.75;4955448;29;20772;-78
2023/05/10 09:25:07;;;;;;;5.63;4.30;;;;;;;19.63;40.64;100551.88;4955305;28;20462;-79
2023/05/10 09:27:36;;;;;;;4.03;3.63;;;;;;;19.74;40.15;100542.59;4958177;29;20450;-79
2023/05/10 09:30:06;;;;;;;4.40;3.50;;;;;;;19.63;40.40;100551.88;4953104;29;20472;-78
2023/05/10 09:32:39;;;;;;;7.13;3.30;;;;;;;19.76;41.00;100551.38;4959524;28;20415;-79
2023/05/10 09:35:11;;;;;;;4.43;3.77;;;;;;;19.96;40.09;100540.44;4956447;29;20430;-78
2023/05/10 09:37:42;;;;;;;5.23;4.27;;;;;;;20.13;40.48;100554.75;4963113;28;20443;-79
2023/05/10 09:40:15;;;;;;;4.53;4.13;;;;;;;20.56;39.29;100552.56;4960216;28;20491;-80
2023/05/10 09:42:52;;;;;;;5.80;5.17;;;;;;;20.66;39.01;100555.31;4952304;29;20436;-78
2023/05/10 09:45:22;;;;;;;6.77;3.93;;;;;;;20.84;38.28;100546.47;4965933;29;20789;-79
2023/05/10 09:48:06;;;;;;;6.23;5.63;;;;;;;20.78;38.83;100547.56;4956493;29;20458;-77
2023/05/10 09:50:37;;;;;;;4.07;3.63;;;;;;;21.14;38.54;100543.69;4968080;29;20527;-78
2023/05/10 09:53:06;;;;;;;5.83;4.17;;;;;;;21.22;38.13;100554.09;4964414;28;20457;-79
2023/05/10 09:55:44;;;;;;;4.37;3.50;;;;;;;20.95;38.41;100550.03;4989752;28;20443;-79
2023/05/10 09:58:14;;;;;;;4.50;3.50;;;;;;;20.49;38.36;100561.09;4961590;28;20430;-78
2023/05/10 10:00:45;;;;;;;6.70;3.70;;;;;;;20.38;39.04;100549.25;4959555;28;20415;-78
2023/05/10 10:03:15;;;;;;;4.40;4.00;;;;;;;20.47;39.21;100555.06;4953531;28;20468;-78
2023/05/10 10:05:47;;;;;;;5.87;4.37;;;;;;;20.82;38.88;100565.16;4957963;28;20408;-79
2023/05/10 10:08:17;;;;;;;5.00;4.00;;;;;;;20.65;39.06;100553.66;4970677;29;20475;-78
2023/05/10 10:10:47;;;;;;;4.20;3.80;;;;;;;20.95;38.24;100550.03;4970785;28;20534;-79
2023/05/10 10:13:17;;;;;;;8.43;3.20;;;;;;;21.11;38.22;100552.44;4971733;29;20429;-77
2023/05/10 10:15:47;;;;;;;3.90;3.20;;;;;;;21.30;37.49;100543.63;4984231;28;20436;-78
2023/05/10 10:18:18;;;;;;;8.37;4.13;;;;;;;21.55;37.72;100547.06;4968034;28;20469;-77
2023/05/10 10:20:49;;;;;;;4.60;3.67;;;;;;;21.60;37.31;100548.97;5000580;28;20446;-78
2023/05/10 10:23:18;;;;;;;4.73;3.50;;;;;;;21.53;37.09;100548.47;4959646;29;20425;-78
2023/05/10 10:25:49;;;;;;;5.30;3.77;;;;;;;21.38;37.42;100540.28;4961748;29;20455;-78
2023/05/10 10:28:27;;;;;;;4.57;4.07;;;;;;;21.59;37.48;100552.84;4955980;29;20416;-79
2023/05/10 10:31:02;;;;;;;4.13;3.47;;;;;;;21.53;37.28;100542.97;4963458;28;20463;-78
2023/05/10 10:33:56;;;;;;;5.60;3.93;;;;;;;21.56;37.28;100534.13;4954180;29;20451;-79
2023/05/10 10:36:28;;;;;;;9.53;3.80;;;;;;;21.39;37.21;100542.75;4958726;28;20536;-78
2023/05/10 10:39:00;;;;;;;4.70;3.83;;;;;;;21.44;37.43;100539.97;4957966;29;20438;-81
2023/05/10 10:41:31;;;;;;;6.37;3.83;;;;;;;21.74;36.68;100527.97;4966967;28;20426;-80
2023/05/10 10:44:34;;;;;;;4.43;4.00;;;;;;;21.81;37.27;100541.41;4954482;29;20423;-79
2023/05/10 10:47:11;;;;;;;4.53;4.03;;;;;;;21.74;36.92;100549.16;4931911;29;20445;-80
2023/05/10 10:49:45;;;;;;;5.50;3.90;;;;;;;21.83;36.68;100547.47;4951851;29;20451;-80
2023/05/10 10:52:28;;;;;;;5.77;4.60;;;;;;;21.98;36.42;100539.13;4953279;29;20482;-78
2023/05/10 10:55:01;;;;;;;3.97;3.57;;;;;;;22.23;36.41;100538.94;4949834;28;20494;-80
2023/05/10 10:57:32;;;;;;;4.50;4.07;;;;;;;22.34;35.53;100543.25;4958264;28;20452;-80
2023/05/10 11:00:28;;;;;;;4.97;4.13;;;;;;;22.38;35.33;100526.97;4952219;28;20787;-78
2023/05/10 11:02:59;;;;;;;6.10;3.53;;;;;;;22.57;35.79;100529.81;4948518;29;20467;-79
2023/05/10 11:05:47;;;;;;;4.93;4.47;;;;;;;22.62;34.99;100541.63;4956857;29;20456;-79
2023/05/10 11:08:27;;;;;;;4.03;3.63;;;;;;;22.70;35.47;100545.72;4970705;28;20436;-78
2023/05/10 11:11:06;;;;;;;5.70;4.27;;;;;;;22.48;35.42;100533.22;4972236;28;20500;-79
2023/05/10 11:13:40;;;;;;;4.57;4.17;;;;;;;22.60;35.79;100540.28;4957716;29;20805;-79
2023/05/10 11:16:14;;;;;;;9.17;3.77;;;;;;;22.47;35.39;100537.06;4955004;28;20886;-78
2023/05/10 11:18:53;;;;;;;6.67;4.30;;;;;;;22.33;35.32;100535.28;4959568;28;20438;-78
2023/05/10 11:21:22;;;;;;;4.27;3.97;;;;;;;22.34;35.68;100532.25;4955360;28;20428;-78
2023/05/10 11:23:56;;;;;;;6.10;4.20;;;;;;;22.47;35.75;100525.22;4959862;28;20421;-79
2023/05/10 11:26:26;;;;;;;6.90;4.57;;;;;;;22.68;36.29;100537.72;4965622;28;20459;-80
2023/05/10 11:29:04;;;;;;;5.43;3.67;;;;;;;22.55;35.39;100538.41;4964792;28;20435;-79
2023/05/10 11:31:53;;;;;;;6.93;3.83;;;;;;;22.71;35.69;100531.63;4974169;28;20466;-80
2023/05/10 11:34:26;;;;;;;4.60;3.53;;;;;;;22.51;34.72;100535.38;4971693;29;20421;-79
2023/05/10 11:36:56;;;;;;;7.60;4.30;;;;;;;22.84;34.87;100535.66;4969158;29;20445;-78
2023/05/10 11:39:29;;;;;;;3.97;3.60;;;;;;;22.85;35.00;100524.31;4969489;28;20431;-80
2023/05/10 11:41:59;;;;;;;4.03;3.63;;;;;;;22.95;35.50;100535.25;4966340;28;20448;-79
2023/05/10 11:44:31;;;;;;;5.13;4.03;;;;;;;22.93;35.14;100518.19;4955995;29;20436;-80
2023/05/10 11:47:01;;;;;;;8.33;4.40;;;;;;;23.19;35.50;100518.69;4956133;29;20461;-80
2023/05/10 11:49:31;;;;;;;8.97;4.57;;;;;;;23.07;35.18;100528.50;4954181;28;20483;-79
2023/05/10 11:52:06;;;;;;;4.43;3.83;;;;;;;22.95;34.68;100528.91;4956189;28;20967;-79
2023/05/10 11:54:37;;;;;;;7.87;4.43;;;;;;;23.23;34.60;100521.69;4969692;28;20432;-80
2023/05/10 11:57:06;;;;;;;4.40;4.00;;;;;;;23.50;34.45;100532.97;4955278;28;20456;-79
2023/05/10 11:59:35;;;;;;;3.63;3.30;;;;;;;23.58;34.17;100529.53;4958776;29;20864;-79
2023/05/10 12:02:04;;;;;;;9.10;4.50;;;;;;;23.55;34.23;100526.53;4956841;29;20934;-79
2023/05/10 12:04:33;;;;;;;8.17;4.10;;;;;;;23.43;33.76;100537.19;4968505;28;20494;-80
2023/05/10 12:07:02;;;;;;;4.10;3.70;;;;;;;23.42;34.03;100524.50;4960614;28;20818;-80
2023/05/10 12:09:31;;;;;;;6.30;4.17;;;;;;;23.46;33.85;100540.19;4983939;28;20450;-80
2023/05/10 12:12:17;;;;;;;7.13;3.87;;;;;;;23.55;33.22;100529.31;4971082;29;20887;-79
2023/05/10 12:14:54;;;;;;;3.73;3.40;;;;;;;23.46;33.59;100542.13;4969221;29;20780;-80
2023/05/10 12:17:23;;;;;;;4.27;3.87;;;;;;;23.37;34.02;100526.19;4988593;28;20470;-80
2023/05/10 12:19:52;;;;;;;5.10;4.03;;;;;;;23.89;33.37;100527.16;4972584;29;20443;-80
2023/05/10 12:22:22;;;;;;;4.37;3.67;;;;;;;23.82;33.09;100534.97;4967186;28;20826;-78
2023/05/10 12:24:52;;;;;;;7.20;3.87;;;;;;;23.52;33.72;100544.53;4957288;28;20448;-80
2023/05/10 12:27:22;;;;;;;4.67;3.53;;;;;;;23.71;33.49;100534.34;4959039;28;20534;-79
2023/05/10 12:29:54;;;;;;;5.40;3.63;;;;;;;23.79;32.55;100536.41;4948966;28;20435;-80
2023/05/10 12:32:39;;;;;;;6.40;4.17;;;;;;;23.93;32.52;100535.66;4957784;29;20463;-79
2023/05/10 12:35:11;;;;;;;4.57;3.30;;;;;;;23.96;32.19;100533.13;4956207;28;20444;-79
2023/05/10 12:37:40;;;;;;;5.17;4.13;;;;;;;23.92;32.55;100534.84;4954256;29;20475;-79